createdAt,value
2022-12-18T00:01:18.990Z,102833.13
2022-12-18T00:04:25.554Z,102833.72
2022-12-18T00:07:27.098Z,102832.53
2022-12-18T00:10:28.931Z,102834.28
2022-12-18T00:13:30.437Z,102826.50
2022-12-18T00:16:32.290Z,102814.25
2022-12-18T00:19:33.803Z,102811.53
2022-12-18T00:22:35.306Z,102816.03
2022-12-18T00:25:37.619Z,102821.34
2022-12-18T00:28:39.954Z,102819.38
2022-12-18T00:31:42.960Z,102828.13
2022-12-18T00:34:44.484Z,102824.31
2022-12-18T00:37:46.000Z,102817.25
2022-12-18T00:41:07.366Z,102810.53
2022-12-18T00:44:13.574Z,102822.78
2022-12-18T00:47:14.997Z,102818.13
2022-12-18T00:50:16.612Z,102832.69
2022-12-18T00:53:18.795Z,102839.50
2022-12-18T00:56:20.244Z,102844.06
2022-12-18T00:59:24.234Z,102840.72
2022-12-18T01:02:27.931Z,102843.38
2022-12-18T01:05:29.589Z,102828.94
2022-12-18T01:08:31.049Z,102820.13
2022-12-18T01:11:32.615Z,102827.63
2022-12-18T01:14:34.141Z,102826.44
2022-12-18T01:17:35.707Z,102831.38
2022-12-18T01:20:38.854Z,102830.81
2022-12-18T01:23:41.766Z,102830.91
2022-12-18T01:26:46.531Z,102834.94
2022-12-18T01:29:50.328Z,102826.78
2022-12-18T01:32:54.610Z,102836.06
2022-12-18T01:35:56.024Z,102842.44
2022-12-18T01:38:59.675Z,102845.72
2022-12-18T01:42:09.803Z,102857.78
2022-12-18T01:45:17.413Z,102844.25
2022-12-18T01:48:19.057Z,102852.44
2022-12-18T01:51:20.764Z,102854.69
2022-12-18T01:54:22.328Z,102856.72
2022-12-18T01:57:25.824Z,102859.16
2022-12-18T02:00:28.486Z,102874.59
2022-12-18T02:03:29.979Z,102870.06
2022-12-18T02:06:40.709Z,102865.78
2022-12-18T02:10:03.213Z,102881.34
2022-12-18T02:13:15.674Z,102873.72
2022-12-18T02:16:44.773Z,102873.88
2022-12-18T02:20:03.651Z,102876.31
2022-12-18T02:23:23.950Z,102861.88
2022-12-18T02:26:36.210Z,102860.63
2022-12-18T02:29:43.283Z,102855.41
2022-12-18T02:32:50.398Z,102857.97
2022-12-18T02:35:54.316Z,102852.97
2022-12-18T02:38:59.130Z,102849.81
2022-12-18T02:42:01.958Z,102854.94
2022-12-18T02:45:04.310Z,102852.28
2022-12-18T02:48:08.847Z,102848.69
2022-12-18T02:51:30.708Z,102840.75
2022-12-18T02:54:47.344Z,102828.16
2022-12-18T02:57:59.146Z,102812.41
2022-12-18T03:01:20.470Z,102811.81
2022-12-18T03:04:31.535Z,102815.25
2022-12-18T03:07:43.042Z,102814.38
2022-12-18T03:11:00.407Z,102811.00
2022-12-18T03:14:06.299Z,102795.97
2022-12-18T03:17:16.526Z,102802.91
2022-12-18T03:20:22.657Z,102800.69
2022-12-18T03:23:28.995Z,102798.94
2022-12-18T03:26:31.117Z,102796.53
2022-12-18T03:29:50.887Z,102796.03
2022-12-18T03:33:08.253Z,102795.59
2022-12-18T03:36:10.870Z,102789.56
2022-12-18T03:39:13.648Z,102791.13
2022-12-18T03:42:52.372Z,102790.44
2022-12-18T03:46:07.096Z,102796.59
2022-12-18T03:49:34.061Z,102782.75
2022-12-18T03:52:53.148Z,102768.69
2022-12-18T03:55:56.717Z,102769.25
2022-12-18T03:59:05.189Z,102763.69
2022-12-18T04:02:09.276Z,102763.22
2022-12-18T04:05:12.993Z,102759.31
2022-12-18T04:08:17.158Z,102760.53
2022-12-18T04:11:26.596Z,102760.66
2022-12-18T04:14:28.934Z,102770.34
2022-12-18T04:17:31.925Z,102773.91
2022-12-18T04:20:33.597Z,102769.44
2022-12-18T04:23:35.143Z,102778.69
2022-12-18T04:26:37.378Z,102779.13
2022-12-18T04:29:47.306Z,102779.22
2022-12-18T04:32:52.334Z,102790.25
2022-12-18T04:35:55.061Z,102787.44
2022-12-18T04:38:56.679Z,102788.06
2022-12-18T04:41:58.627Z,102793.50
2022-12-18T04:45:03.630Z,102789.56
2022-12-18T04:48:05.303Z,102794.22
2022-12-18T04:51:07.128Z,102798.88
2022-12-18T04:54:08.642Z,102802.25
2022-12-18T04:57:10.171Z,102789.38
2022-12-18T05:00:12.546Z,102789.78
2022-12-18T05:03:32.708Z,102793.94
2022-12-18T05:06:34.204Z,102783.78
2022-12-18T05:09:35.729Z,102794.03
2022-12-18T05:12:37.202Z,102793.06
2022-12-18T05:15:38.696Z,102804.25
2022-12-18T05:18:40.331Z,102812.16
2022-12-18T05:21:41.756Z,102808.97
2022-12-18T05:24:43.262Z,102802.06
2022-12-18T05:27:45.214Z,102796.19
2022-12-18T05:30:51.793Z,102800.38
2022-12-18T05:33:53.309Z,102803.34
2022-12-18T05:36:54.871Z,102807.97
2022-12-18T05:39:56.369Z,102796.69
2022-12-18T05:42:57.819Z,102783.59
2022-12-18T05:46:04.567Z,102781.81
2022-12-18T05:49:05.992Z,102767.75
2022-12-18T05:52:07.543Z,102767.09
2022-12-18T05:55:09.174Z,102771.34
2022-12-18T05:58:12.736Z,102773.13
2022-12-18T06:01:18.131Z,102779.28
2022-12-18T06:04:19.673Z,102780.84
2022-12-18T06:07:21.123Z,102785.31
2022-12-18T06:10:22.562Z,102778.06
2022-12-18T06:13:24.094Z,102773.28
2022-12-18T06:16:26.069Z,102768.81
2022-12-18T06:19:27.558Z,102758.34
2022-12-18T06:22:29.014Z,102762.44
2022-12-18T06:25:30.489Z,102757.31
2022-12-18T06:28:32.130Z,102749.09
2022-12-18T06:31:33.723Z,102742.22
2022-12-18T06:34:37.623Z,102742.97
2022-12-18T06:37:39.061Z,102737.59
2022-12-18T06:40:40.551Z,102748.09
2022-12-18T06:43:42.957Z,102738.78
2022-12-18T06:46:44.607Z,102726.75
2022-12-18T06:49:46.202Z,102724.69
2022-12-18T06:52:47.679Z,102719.44
2022-12-18T06:55:49.532Z,102722.03
2022-12-18T06:58:51.052Z,102721.75
2022-12-18T07:01:52.664Z,102722.50
2022-12-18T07:04:54.226Z,102714.84
2022-12-18T07:07:55.838Z,102715.75
2022-12-18T07:10:57.752Z,102706.31
2022-12-18T07:13:59.194Z,102706.53
2022-12-18T07:17:00.775Z,102698.75
2022-12-18T07:20:02.374Z,102695.44
2022-12-18T07:23:05.264Z,102689.56
2022-12-18T07:26:10.082Z,102676.25
2022-12-18T07:29:11.587Z,102672.78
2022-12-18T07:32:13.093Z,102650.63
2022-12-18T07:35:17.494Z,102641.50
2022-12-18T07:38:22.583Z,102628.91
2022-12-18T07:41:24.079Z,102624.44
2022-12-18T07:44:25.599Z,102621.22
2022-12-18T07:47:27.194Z,102630.53
2022-12-18T07:50:29.566Z,102625.84
2022-12-18T07:53:31.453Z,102631.75
2022-12-18T07:56:34.103Z,102647.13
2022-12-18T07:59:36.006Z,102644.72
2022-12-18T08:02:37.605Z,102644.19
2022-12-18T08:05:39.102Z,102649.97
2022-12-18T08:08:40.542Z,102647.91
2022-12-18T08:11:42.012Z,102660.97
2022-12-18T08:14:43.602Z,102657.22
2022-12-18T08:17:45.166Z,102657.91
2022-12-18T08:20:46.624Z,102638.22
2022-12-18T08:23:48.731Z,102621.16
2022-12-18T08:27:00.998Z,102622.94
2022-12-18T08:30:12.641Z,102627.53
2022-12-18T08:33:14.114Z,102633.13
2022-12-18T08:36:15.584Z,102626.31
2022-12-18T08:39:17.124Z,102627.34
2022-12-18T08:42:18.628Z,102629.69
2022-12-18T08:45:20.132Z,102633.69
2022-12-18T08:48:22.390Z,102633.25
2022-12-18T08:51:24.102Z,102645.09
2022-12-18T08:54:26.824Z,102653.47
2022-12-18T08:57:28.249Z,102659.06
2022-12-18T09:00:29.779Z,102666.66
2022-12-18T09:03:34.397Z,102663.88
2022-12-18T09:06:36.192Z,102666.75
2022-12-18T09:09:38.651Z,102662.84
2022-12-18T09:12:40.102Z,102654.56
2022-12-18T09:15:51.131Z,102654.81
2022-12-18T09:18:52.632Z,102649.53
2022-12-18T09:21:54.064Z,102643.72
2022-12-18T09:24:55.540Z,102642.25
2022-12-18T09:27:57.014Z,102629.75
2022-12-18T09:30:58.515Z,102624.34
2022-12-18T09:34:00.087Z,102607.81
2022-12-18T09:37:01.589Z,102601.50
2022-12-18T09:40:03.446Z,102613.19
2022-12-18T09:43:08.432Z,102606.78
2022-12-18T09:46:18.700Z,102618.25
2022-12-18T09:49:26.098Z,102622.72
2022-12-18T09:52:42.688Z,102619.34
2022-12-18T09:55:48.636Z,102622.66
2022-12-18T09:59:02.993Z,102625.34
2022-12-18T10:02:24.761Z,102636.56
2022-12-18T10:05:48.315Z,102622.22
2022-12-18T10:09:08.461Z,102618.09
2022-12-18T10:12:28.412Z,102601.69
2022-12-18T10:15:41.747Z,102602.69
2022-12-18T10:19:20.932Z,102593.00
2022-12-18T10:22:27.198Z,102583.19
2022-12-18T10:25:45.796Z,102575.97
2022-12-18T10:28:47.677Z,102577.94
2022-12-18T10:31:49.162Z,102570.63
2022-12-18T10:34:59.828Z,102564.84
2022-12-18T10:38:17.215Z,102565.97
2022-12-18T10:41:18.616Z,102556.13
2022-12-18T10:44:24.415Z,102558.53
2022-12-18T10:47:29.135Z,102565.22
2022-12-18T10:51:09.174Z,102555.91
2022-12-18T10:54:04.259Z,102557.97
2022-12-18T10:57:29.663Z,102560.41
2022-12-18T11:00:31.679Z,102562.59
2022-12-18T11:03:38.263Z,102558.78
2022-12-18T11:06:53.703Z,102548.16
2022-12-18T11:10:03.383Z,102536.78
2022-12-18T11:13:17.615Z,102543.34
2022-12-18T11:16:22.363Z,102531.19
2022-12-18T11:19:41.735Z,102536.53
2022-12-18T11:22:43.674Z,102539.19
2022-12-18T11:25:56.900Z,102538.84
2022-12-18T11:29:17.187Z,102535.81
2022-12-18T11:32:32.373Z,102532.03
2022-12-18T11:35:53.753Z,102523.84
2022-12-18T11:38:58.294Z,102511.41
2022-12-18T11:42:13.247Z,102507.63
2022-12-18T11:45:15.466Z,102501.06
2022-12-18T11:48:28.433Z,102488.78
2022-12-18T11:51:39.084Z,102484.06
2022-12-18T11:54:40.565Z,102473.75
2022-12-18T11:57:50.376Z,102466.19
2022-12-18T12:01:19.242Z,102460.22
2022-12-18T12:04:44.176Z,102457.88
2022-12-18T12:07:53.545Z,102447.13
2022-12-18T12:11:24.009Z,102443.88
2022-12-18T12:14:48.566Z,102433.72
2022-12-18T12:18:23.839Z,102432.78
2022-12-18T12:21:28.204Z,102420.38
2022-12-18T12:25:00.651Z,102424.97
2022-12-18T12:28:36.741Z,102418.91
2022-12-18T12:32:19.851Z,102419.25
2022-12-18T12:35:52.857Z,102409.06
2022-12-18T12:39:01.997Z,102405.84
2022-12-18T12:42:16.298Z,102403.03
2022-12-18T12:45:25.072Z,102399.66
2022-12-18T12:48:43.783Z,102411.03
2022-12-18T12:51:56.714Z,102407.31
2022-12-18T12:55:10.257Z,102390.19
2022-12-18T12:58:24.086Z,102393.91
2022-12-18T13:01:42.432Z,102391.84
2022-12-18T13:04:57.243Z,102385.69
2022-12-18T13:08:07.028Z,102390.19
2022-12-18T13:11:45.411Z,102378.25
2022-12-18T13:14:50.093Z,102376.47
2022-12-18T13:18:10.620Z,102364.38
2022-12-18T13:21:25.287Z,102368.72
2022-12-18T13:24:31.518Z,102352.69
2022-12-18T13:27:45.164Z,102363.56
2022-12-18T13:30:55.067Z,102351.78
2022-12-18T13:34:27.828Z,102333.72
2022-12-18T13:37:33.487Z,102333.72
2022-12-18T13:40:41.007Z,102323.06
2022-12-18T13:43:46.009Z,102326.78
2022-12-18T13:46:50.602Z,102314.84
2022-12-18T13:49:53.450Z,102308.06
2022-12-18T13:52:55.097Z,102306.41
2022-12-18T13:55:57.110Z,102308.19
2022-12-18T13:59:13.303Z,102298.94
2022-12-18T14:02:21.572Z,102300.63
2022-12-18T14:05:28.191Z,102288.44
2022-12-18T14:08:41.967Z,102299.00
2022-12-18T14:11:48.874Z,102284.47
2022-12-18T14:14:53.148Z,102288.03
2022-12-18T14:18:00.373Z,102276.88
2022-12-18T14:21:04.019Z,102272.53
2022-12-18T14:24:05.664Z,102272.66
2022-12-18T14:27:25.471Z,102268.22
2022-12-18T14:30:33.706Z,102265.75
2022-12-18T14:33:39.333Z,102263.97
2022-12-18T14:36:41.066Z,102262.25
2022-12-18T14:40:02.201Z,102250.09
2022-12-18T14:43:06.035Z,102251.19
2022-12-18T14:46:29.969Z,102249.50
2022-12-18T14:49:34.621Z,102244.34
2022-12-18T14:52:36.176Z,102232.22
2022-12-18T14:55:37.718Z,102239.25
2022-12-18T14:58:39.205Z,102224.88
2022-12-18T15:01:48.485Z,102215.19
2022-12-18T15:05:17.695Z,102223.97
2022-12-18T15:08:32.417Z,102212.75
2022-12-18T15:11:58.774Z,102212.91
2022-12-18T15:15:00.315Z,102205.97
2022-12-18T15:18:11.313Z,102208.47
2022-12-18T15:21:19.526Z,102198.13
2022-12-18T15:24:30.551Z,102198.88
2022-12-18T15:27:37.155Z,102202.41
2022-12-18T15:30:38.639Z,102206.69
2022-12-18T15:34:02.596Z,102218.09
2022-12-18T15:37:04.071Z,102215.41
2022-12-18T15:40:06.289Z,102211.94
2022-12-18T15:43:10.025Z,102200.81
2022-12-18T15:46:16.906Z,102202.59
2022-12-18T15:49:18.420Z,102199.31
2022-12-18T15:52:19.895Z,102194.03
2022-12-18T15:55:23.746Z,102184.78
2022-12-18T15:58:25.152Z,102170.09
2022-12-18T16:01:29.291Z,102178.66
2022-12-18T16:04:30.818Z,102178.81
2022-12-18T16:07:32.345Z,102171.84
2022-12-18T16:10:33.814Z,102156.66
2022-12-18T16:13:35.417Z,102158.44
2022-12-18T16:16:37.002Z,102167.13
2022-12-18T16:19:38.478Z,102163.88
2022-12-18T16:22:39.894Z,102164.69
2022-12-18T16:25:41.823Z,102154.44
2022-12-18T16:28:48.254Z,102144.16
2022-12-18T16:31:50.012Z,102139.88
2022-12-18T16:34:51.982Z,102130.44
2022-12-18T16:37:53.533Z,102141.59
2022-12-18T16:40:55.050Z,102136.56
2022-12-18T16:43:56.497Z,102130.66
2022-12-18T16:46:57.935Z,102129.75
2022-12-18T16:49:59.546Z,102134.91
2022-12-18T16:53:01.031Z,102122.09
2022-12-18T16:56:02.524Z,102116.31
2022-12-18T16:59:04.084Z,102124.88
2022-12-18T17:02:06.653Z,102116.31
2022-12-18T17:05:09.594Z,102114.69
2022-12-18T17:08:13.409Z,102111.41
2022-12-18T17:11:15.288Z,102122.72
2022-12-18T17:14:19.780Z,102112.47
2022-12-18T17:17:23.022Z,102109.94
2022-12-18T17:20:24.726Z,102106.38
2022-12-18T17:23:28.431Z,102113.75
2022-12-18T17:26:30.463Z,102112.91
2022-12-18T17:29:31.972Z,102110.19
2022-12-18T17:32:33.409Z,102117.28
2022-12-18T17:35:34.838Z,102116.47
2022-12-18T17:38:37.034Z,102101.25
2022-12-18T17:41:38.491Z,102103.28
2022-12-18T17:44:39.963Z,102112.66
2022-12-18T17:47:41.407Z,102097.34
2022-12-18T17:50:42.849Z,102095.66
2022-12-18T17:53:44.953Z,102095.66
2022-12-18T17:56:46.524Z,102094.16
2022-12-18T17:59:48.035Z,102093.22
2022-12-18T18:02:49.654Z,102089.13
2022-12-18T18:05:58.874Z,102090.13
2022-12-18T18:09:00.426Z,102095.25
2022-12-18T18:12:01.862Z,102088.59
2022-12-18T18:15:03.709Z,102096.34
2022-12-18T18:18:05.409Z,102100.75
2022-12-18T18:21:08.062Z,102093.94
2022-12-18T18:24:11.893Z,102090.66
2022-12-18T18:27:13.364Z,102088.06
2022-12-18T18:30:14.895Z,102087.25
2022-12-18T18:33:16.395Z,102088.25
2022-12-18T18:36:17.935Z,102081.41
2022-12-18T18:39:19.983Z,102085.81
2022-12-18T18:42:21.437Z,102088.50
2022-12-18T18:45:22.874Z,102083.50
2022-12-18T18:48:25.298Z,102095.00
2022-12-18T18:51:34.878Z,102090.69
2022-12-18T18:54:36.784Z,102082.13
2022-12-18T18:57:38.246Z,102079.66
2022-12-18T19:00:39.843Z,102085.66
2022-12-18T19:03:43.011Z,102084.03
2022-12-18T19:06:44.823Z,102076.25
2022-12-18T19:09:47.277Z,102079.09
2022-12-18T19:12:48.708Z,102080.03
2022-12-18T19:15:55.846Z,102076.59
2022-12-18T19:19:01.740Z,102081.00
2022-12-18T19:22:04.887Z,102082.63
2022-12-18T19:25:07.359Z,102080.22
2022-12-18T19:28:21.262Z,102070.63
2022-12-18T19:31:26.322Z,102070.78
2022-12-18T19:34:31.994Z,102069.97
2022-12-18T19:37:35.287Z,102070.06
2022-12-18T19:40:40.841Z,102079.50
2022-12-18T19:43:42.641Z,102076.91
2022-12-18T19:46:45.011Z,102084.66
2022-12-18T19:49:46.857Z,102062.28
2022-12-18T19:52:48.329Z,102064.00
2022-12-18T19:55:49.866Z,102070.13
2022-12-18T19:58:52.444Z,102059.88
2022-12-18T20:01:54.452Z,102064.19
2022-12-18T20:04:56.387Z,102061.59
2022-12-18T20:07:57.945Z,102066.78
2022-12-18T20:10:59.435Z,102058.16
2022-12-18T20:14:01.080Z,102046.88
2022-12-18T20:17:02.563Z,102040.88
2022-12-18T20:20:04.880Z,102051.28
2022-12-18T20:23:06.304Z,102054.78
2022-12-18T20:26:07.806Z,102038.47
2022-12-18T20:29:10.233Z,102031.59
2022-12-18T20:32:11.787Z,102028.88
2022-12-18T20:35:13.358Z,102027.16
2022-12-18T20:38:15.770Z,102024.66
2022-12-18T20:41:20.546Z,102012.53
2022-12-18T20:44:24.041Z,102009.13
2022-12-18T20:47:26.392Z,102010.00
2022-12-18T20:50:28.255Z,101998.69
2022-12-18T20:53:29.981Z,101987.63
2022-12-18T20:56:31.549Z,101986.84
2022-12-18T20:59:33.064Z,101983.31
2022-12-18T21:02:34.764Z,101971.31
2022-12-18T21:05:36.361Z,101969.53
2022-12-18T21:08:39.263Z,101969.69
2022-12-18T21:11:59.325Z,101970.50
2022-12-18T21:15:01.586Z,101976.50
2022-12-18T21:18:03.125Z,101954.22
2022-12-18T21:21:04.729Z,101964.63
2022-12-18T21:24:18.138Z,101958.50
2022-12-18T21:27:23.287Z,101959.41
2022-12-18T21:30:24.750Z,101948.00
2022-12-18T21:33:26.183Z,101944.72
2022-12-18T21:36:27.799Z,101945.59
2022-12-18T21:39:30.271Z,101939.59
2022-12-18T21:42:31.824Z,101918.13
2022-12-18T21:45:33.539Z,101911.19
2022-12-18T21:48:34.967Z,101913.03
2022-12-18T21:51:41.330Z,101904.44
2022-12-18T21:54:42.804Z,101901.03
2022-12-18T21:57:44.259Z,101894.97
2022-12-18T22:00:48.665Z,101888.91
2022-12-18T22:03:50.366Z,101888.91
2022-12-18T22:06:51.895Z,101894.16
2022-12-18T22:09:53.338Z,101881.25
2022-12-18T22:12:55.064Z,101882.06
2022-12-18T22:15:56.670Z,101871.06
2022-12-18T22:18:58.186Z,101856.41
2022-12-18T22:21:59.771Z,101852.09
2022-12-18T22:25:01.202Z,101851.44
2022-12-18T22:28:02.707Z,101839.28
2022-12-18T22:31:04.273Z,101837.66
2022-12-18T22:34:07.018Z,101835.06
2022-12-18T22:37:11.294Z,101829.91
2022-12-18T22:40:23.709Z,101812.00
2022-12-18T22:43:26.114Z,101807.69
2022-12-18T22:46:30.956Z,101812.03
2022-12-18T22:49:36.122Z,101815.47
2022-12-18T22:52:37.642Z,101813.88
2022-12-18T22:55:39.109Z,101803.56
2022-12-18T22:58:40.584Z,101794.97
2022-12-18T23:01:42.266Z,101797.31
2022-12-18T23:04:45.167Z,101808.75
2022-12-18T23:07:46.692Z,101805.28
2022-12-18T23:10:52.633Z,101803.56
2022-12-18T23:13:54.192Z,101794.91
2022-12-18T23:16:59.023Z,101796.72
2022-12-18T23:20:00.439Z,101792.47
2022-12-18T23:23:01.869Z,101769.19
2022-12-18T23:26:08.756Z,101753.75
2022-12-18T23:29:10.207Z,101752.97
2022-12-18T23:32:11.661Z,101760.63
2022-12-18T23:35:15.899Z,101749.66
2022-12-18T23:38:17.552Z,101754.09
2022-12-18T23:41:20.829Z,101744.59
2022-12-18T23:44:22.276Z,101742.97
2022-12-18T23:47:23.871Z,101746.56
2022-12-18T23:50:28.760Z,101742.31
2022-12-18T23:53:31.558Z,101738.94
2022-12-18T23:56:33.027Z,101721.81
2022-12-18T23:59:34.459Z,101710.75
